sensor_id;sensor_type;location;lat;lon;timestamp;P1;durP1;ratioP1;P2;durP2;ratioP2
15132;SDS011;7667;51.232;17.110;2023-03-13T00:03:50;10.17;;;8.27;;
15132;SDS011;7667;51.232;17.110;2023-03-13T00:06:31;19.00;;;17.10;;
15132;SDS011;7667;51.232;17.110;2023-03-13T00:09:05;13.87;;;12.53;;
15132;SDS011;7667;51.232;17.110;2023-03-13T00:11:35;10.23;;;7.87;;
15132;SDS011;7667;51.232;17.110;2023-03-13T00:14:03;7.73;;;5.97;;
15132;SDS011;7667;51.232;17.110;2023-03-13T00:16:32;7.93;;;5.13;;
15132;SDS011;7667;51.232;17.110;2023-03-13T00:19:01;7.40;;;4.97;;
15132;SDS011;7667;51.232;17.110;2023-03-13T00:21:29;5.80;;;4.10;;
15132;SDS011;7667;51.232;17.110;2023-03-13T00:23:58;5.07;;;3.87;;
15132;SDS011;7667;51.232;17.110;2023-03-13T00:26:26;4.33;;;3.50;;
15132;SDS011;7667;51.232;17.110;2023-03-13T00:28:55;5.73;;;4.00;;
15132;SDS011;7667;51.232;17.110;2023-03-13T00:31:24;4.57;;;3.50;;
15132;SDS011;7667;51.232;17.110;2023-03-13T00:34:01;4.53;;;3.83;;
15132;SDS011;7667;51.232;17.110;2023-03-13T00:36:31;4.27;;;3.30;;
15132;SDS011;7667;51.232;17.110;2023-03-13T00:39:02;4.43;;;3.73;;
15132;SDS011;7667;51.232;17.110;2023-03-13T00:41:31;4.80;;;3.67;;
15132;SDS011;7667;51.232;17.110;2023-03-13T00:44:00;4.17;;;3.33;;
15132;SDS011;7667;51.232;17.110;2023-03-13T00:46:28;3.33;;;2.97;;
15132;SDS011;7667;51.232;17.110;2023-03-13T00:48:56;3.53;;;3.03;;
15132;SDS011;7667;51.232;17.110;2023-03-13T00:51:24;3.67;;;3.00;;
15132;SDS011;7667;51.232;17.110;2023-03-13T00:53:53;4.57;;;2.90;;
15132;SDS011;7667;51.232;17.110;2023-03-13T00:56:22;5.50;;;3.47;;
15132;SDS011;7667;51.232;17.110;2023-03-13T00:58:50;3.50;;;3.20;;
15132;SDS011;7667;51.232;17.110;2023-03-13T01:01:19;4.30;;;2.93;;
15132;SDS011;7667;51.232;17.110;2023-03-13T01:03:56;4.80;;;2.97;;
15132;SDS011;7667;51.232;17.110;2023-03-13T01:06:41;3.77;;;3.13;;
15132;SDS011;7667;51.232;17.110;2023-03-13T01:09:11;3.70;;;2.90;;
15132;SDS011;7667;51.232;17.110;2023-03-13T01:11:41;3.97;;;3.00;;
15132;SDS011;7667;51.232;17.110;2023-03-13T01:14:11;4.73;;;3.20;;
15132;SDS011;7667;51.232;17.110;2023-03-13T01:16:42;3.30;;;3.00;;
15132;SDS011;7667;51.232;17.110;2023-03-13T01:19:11;3.97;;;2.73;;
15132;SDS011;7667;51.232;17.110;2023-03-13T01:21:41;3.60;;;2.93;;
15132;SDS011;7667;51.232;17.110;2023-03-13T01:24:11;3.80;;;2.60;;
15132;SDS011;7667;51.232;17.110;2023-03-13T01:26:39;3.70;;;2.80;;
15132;SDS011;7667;51.232;17.110;2023-03-13T01:29:06;3.37;;;2.80;;
15132;SDS011;7667;51.232;17.110;2023-03-13T01:31:34;3.03;;;2.40;;
15132;SDS011;7667;51.232;17.110;2023-03-13T01:34:03;3.23;;;2.50;;
15132;SDS011;7667;51.232;17.110;2023-03-13T01:36:32;3.07;;;2.50;;
15132;SDS011;7667;51.232;17.110;2023-03-13T01:39:02;3.37;;;2.30;;
15132;SDS011;7667;51.232;17.110;2023-03-13T01:41:31;2.80;;;2.50;;
15132;SDS011;7667;51.232;17.110;2023-03-13T01:43:58;3.80;;;2.60;;
15132;SDS011;7667;51.232;17.110;2023-03-13T01:46:26;4.57;;;3.27;;
15132;SDS011;7667;51.232;17.110;2023-03-13T01:57:42;3.40;;;3.00;;
15132;SDS011;7667;51.232;17.110;2023-03-13T02:00:16;3.90;;;3.07;;
15132;SDS011;7667;51.232;17.110;2023-03-13T02:02:51;4.70;;;3.23;;
15132;SDS011;7667;51.232;17.110;2023-03-13T02:05:24;4.27;;;3.47;;
15132;SDS011;7667;51.232;17.110;2023-03-13T02:10:57;3.03;;;2.37;;
15132;SDS011;7667;51.232;17.110;2023-03-13T02:13:47;4.07;;;2.50;;
15132;SDS011;7667;51.232;17.110;2023-03-13T02:16:17;3.73;;;2.60;;
15132;SDS011;7667;51.232;17.110;2023-03-13T02:18:46;5.27;;;2.80;;
15132;SDS011;7667;51.232;17.110;2023-03-13T02:21:21;4.67;;;2.90;;
15132;SDS011;7667;51.232;17.110;2023-03-13T02:24:33;4.47;;;2.60;;
15132;SDS011;7667;51.232;17.110;2023-03-13T02:27:29;4.80;;;3.30;;
15132;SDS011;7667;51.232;17.110;2023-03-13T02:29:57;4.13;;;3.10;;
15132;SDS011;7667;51.232;17.110;2023-03-13T02:32:25;4.23;;;3.30;;
15132;SDS011;7667;51.232;17.110;2023-03-13T02:34:57;4.60;;;3.17;;
15132;SDS011;7667;51.232;17.110;2023-03-13T02:37:32;5.57;;;3.40;;
15132;SDS011;7667;51.232;17.110;2023-03-13T02:40:00;4.53;;;3.40;;
15132;SDS011;7667;51.232;17.110;2023-03-13T02:42:38;5.33;;;3.70;;
15132;SDS011;7667;51.232;17.110;2023-03-13T02:45:09;5.20;;;3.30;;
15132;SDS011;7667;51.232;17.110;2023-03-13T02:47:40;6.47;;;3.40;;
15132;SDS011;7667;51.232;17.110;2023-03-13T02:50:08;3.80;;;3.13;;
15132;SDS011;7667;51.232;17.110;2023-03-13T02:52:48;5.03;;;3.37;;
15132;SDS011;7667;51.232;17.110;2023-03-13T02:55:42;3.87;;;3.10;;
15132;SDS011;7667;51.232;17.110;2023-03-13T02:58:10;6.13;;;4.03;;
15132;SDS011;7667;51.232;17.110;2023-03-13T03:00:37;4.20;;;3.30;;
15132;SDS011;7667;51.232;17.110;2023-03-13T03:03:05;4.20;;;3.27;;
15132;SDS011;7667;51.232;17.110;2023-03-13T03:05:32;4.97;;;3.20;;
15132;SDS011;7667;51.232;17.110;2023-03-13T03:07:59;6.73;;;3.47;;
15132;SDS011;7667;51.232;17.110;2023-03-13T03:10:27;7.87;;;3.97;;
15132;SDS011;7667;51.232;17.110;2023-03-13T03:12:54;5.00;;;3.77;;
15132;SDS011;7667;51.232;17.110;2023-03-13T03:15:22;5.83;;;3.73;;
15132;SDS011;7667;51.232;17.110;2023-03-13T03:17:50;6.70;;;5.07;;
15132;SDS011;7667;51.232;17.110;2023-03-13T03:20:17;5.27;;;4.07;;
15132;SDS011;7667;51.232;17.110;2023-03-13T03:22:45;7.10;;;4.97;;
15132;SDS011;7667;51.232;17.110;2023-03-13T03:25:12;7.97;;;5.03;;
15132;SDS011;7667;51.232;17.110;2023-03-13T03:27:39;7.67;;;5.53;;
15132;SDS011;7667;51.232;17.110;2023-03-13T03:30:07;8.77;;;5.93;;
15132;SDS011;7667;51.232;17.110;2023-03-13T03:32:36;7.37;;;5.00;;
15132;SDS011;7667;51.232;17.110;2023-03-13T03:35:03;7.70;;;5.33;;
15132;SDS011;7667;51.232;17.110;2023-03-13T03:37:32;6.17;;;5.33;;
15132;SDS011;7667;51.232;17.110;2023-03-13T03:40:00;7.20;;;4.90;;
15132;SDS011;7667;51.232;17.110;2023-03-13T03:42:27;7.37;;;5.73;;
15132;SDS011;7667;51.232;17.110;2023-03-13T03:44:54;6.67;;;5.60;;
15132;SDS011;7667;51.232;17.110;2023-03-13T03:47:22;8.50;;;6.17;;
15132;SDS011;7667;51.232;17.110;2023-03-13T03:49:50;8.27;;;6.80;;
15132;SDS011;7667;51.232;17.110;2023-03-13T03:52:17;9.43;;;7.27;;
15132;SDS011;7667;51.232;17.110;2023-03-13T03:54:45;7.33;;;6.60;;
15132;SDS011;7667;51.232;17.110;2023-03-13T03:57:12;8.20;;;7.23;;
15132;SDS011;7667;51.232;17.110;2023-03-13T03:59:40;9.73;;;6.83;;
15132;SDS011;7667;51.232;17.110;2023-03-13T04:02:07;10.03;;;7.87;;
15132;SDS011;7667;51.232;17.110;2023-03-13T04:04:35;10.67;;;7.33;;
15132;SDS011;7667;51.232;17.110;2023-03-13T04:07:02;8.37;;;6.70;;
15132;SDS011;7667;51.232;17.110;2023-03-13T04:09:30;7.60;;;5.90;;
15132;SDS011;7667;51.232;17.110;2023-03-13T04:11:57;7.13;;;6.30;;
15132;SDS011;7667;51.232;17.110;2023-03-13T04:14:25;6.73;;;5.63;;
15132;SDS011;7667;51.232;17.110;2023-03-13T04:16:52;7.57;;;6.00;;
15132;SDS011;7667;51.232;17.110;2023-03-13T04:19:20;7.20;;;5.73;;
15132;SDS011;7667;51.232;17.110;2023-03-13T04:21:47;8.47;;;5.97;;
15132;SDS011;7667;51.232;17.110;2023-03-13T04:24:15;7.97;;;6.13;;
15132;SDS011;7667;51.232;17.110;2023-03-13T04:26:42;7.53;;;5.93;;
15132;SDS011;7667;51.232;17.110;2023-03-13T04:29:10;7.40;;;5.97;;
15132;SDS011;7667;51.232;17.110;2023-03-13T04:31:37;8.10;;;6.53;;
15132;SDS011;7667;51.232;17.110;2023-03-13T04:34:05;8.97;;;6.47;;
15132;SDS011;7667;51.232;17.110;2023-03-13T04:36:32;8.50;;;6.43;;
15132;SDS011;7667;51.232;17.110;2023-03-13T04:39:00;8.23;;;6.13;;
15132;SDS011;7667;51.232;17.110;2023-03-13T04:41:27;6.73;;;6.03;;
15132;SDS011;7667;51.232;17.110;2023-03-13T04:43:55;9.40;;;7.87;;
15132;SDS011;7667;51.232;17.110;2023-03-13T04:46:22;9.60;;;7.70;;
15132;SDS011;7667;51.232;17.110;2023-03-13T04:48:50;7.97;;;6.43;;
15132;SDS011;7667;51.232;17.110;2023-03-13T04:51:17;8.37;;;6.60;;
15132;SDS011;7667;51.232;17.110;2023-03-13T04:53:45;9.50;;;6.70;;
15132;SDS011;7667;51.232;17.110;2023-03-13T04:56:14;7.53;;;6.43;;
15132;SDS011;7667;51.232;17.110;2023-03-13T04:59:09;9.03;;;6.80;;
15132;SDS011;7667;51.232;17.110;2023-03-13T05:01:38;8.03;;;6.07;;
15132;SDS011;7667;51.232;17.110;2023-03-13T05:04:07;9.07;;;7.63;;
15132;SDS011;7667;51.232;17.110;2023-03-13T05:06:36;12.50;;;11.20;;
15132;SDS011;7667;51.232;17.110;2023-03-13T05:09:04;11.27;;;8.53;;
15132;SDS011;7667;51.232;17.110;2023-03-13T05:11:32;13.27;;;10.70;;
15132;SDS011;7667;51.232;17.110;2023-03-13T05:14:00;11.17;;;9.93;;
15132;SDS011;7667;51.232;17.110;2023-03-13T05:16:27;10.17;;;8.00;;
15132;SDS011;7667;51.232;17.110;2023-03-13T05:18:55;9.07;;;7.00;;
15132;SDS011;7667;51.232;17.110;2023-03-13T05:21:22;9.03;;;7.73;;
15132;SDS011;7667;51.232;17.110;2023-03-13T05:23:50;10.13;;;7.47;;
15132;SDS011;7667;51.232;17.110;2023-03-13T05:26:17;10.37;;;7.50;;
15132;SDS011;7667;51.232;17.110;2023-03-13T05:28:45;10.30;;;7.07;;
15132;SDS011;7667;51.232;17.110;2023-03-13T05:31:12;11.00;;;7.73;;
15132;SDS011;7667;51.232;17.110;2023-03-13T05:33:40;12.63;;;7.87;;
15132;SDS011;7667;51.232;17.110;2023-03-13T05:36:07;11.40;;;8.10;;
15132;SDS011;7667;51.232;17.110;2023-03-13T05:38:35;10.60;;;7.93;;
15132;SDS011;7667;51.232;17.110;2023-03-13T05:41:02;11.57;;;8.30;;
15132;SDS011;7667;51.232;17.110;2023-03-13T05:43:30;11.40;;;8.10;;
15132;SDS011;7667;51.232;17.110;2023-03-13T05:45:58;10.53;;;7.47;;
15132;SDS011;7667;51.232;17.110;2023-03-13T05:48:25;9.20;;;7.53;;
15132;SDS011;7667;51.232;17.110;2023-03-13T05:50:53;11.40;;;8.10;;
15132;SDS011;7667;51.232;17.110;2023-03-13T05:53:20;11.53;;;8.30;;
15132;SDS011;7667;51.232;17.110;2023-03-13T05:55:48;10.30;;;7.67;;
15132;SDS011;7667;51.232;17.110;2023-03-13T05:58:15;10.93;;;8.20;;
15132;SDS011;7667;51.232;17.110;2023-03-13T06:00:42;11.13;;;7.63;;
15132;SDS011;7667;51.232;17.110;2023-03-13T06:03:10;14.43;;;8.73;;
15132;SDS011;7667;51.232;17.110;2023-03-13T06:05:39;12.83;;;8.10;;
15132;SDS011;7667;51.232;17.110;2023-03-13T06:08:07;10.53;;;7.87;;
15132;SDS011;7667;51.232;17.110;2023-03-13T06:10:34;9.73;;;7.37;;
15132;SDS011;7667;51.232;17.110;2023-03-13T06:13:02;11.20;;;7.83;;
15132;SDS011;7667;51.232;17.110;2023-03-13T06:15:51;11.30;;;8.23;;
15132;SDS011;7667;51.232;17.110;2023-03-13T06:18:21;13.97;;;8.73;;
15132;SDS011;7667;51.232;17.110;2023-03-13T06:20:49;12.57;;;7.70;;
15132;SDS011;7667;51.232;17.110;2023-03-13T06:23:23;12.37;;;8.07;;
15132;SDS011;7667;51.232;17.110;2023-03-13T06:25:51;10.40;;;7.83;;
15132;SDS011;7667;51.232;17.110;2023-03-13T06:28:18;12.47;;;8.43;;
15132;SDS011;7667;51.232;17.110;2023-03-13T06:30:46;9.97;;;7.93;;
15132;SDS011;7667;51.232;17.110;2023-03-13T06:33:14;11.80;;;7.50;;
15132;SDS011;7667;51.232;17.110;2023-03-13T06:35:42;11.30;;;7.53;;
15132;SDS011;7667;51.232;17.110;2023-03-13T06:38:24;14.80;;;8.00;;
15132;SDS011;7667;51.232;17.110;2023-03-13T06:40:52;12.03;;;10.43;;
15132;SDS011;7667;51.232;17.110;2023-03-13T06:43:20;13.83;;;8.87;;
15132;SDS011;7667;51.232;17.110;2023-03-13T06:45:47;11.07;;;7.30;;
15132;SDS011;7667;51.232;17.110;2023-03-13T06:48:15;13.20;;;7.80;;
15132;SDS011;7667;51.232;17.110;2023-03-13T06:50:43;14.70;;;7.70;;
15132;SDS011;7667;51.232;17.110;2023-03-13T06:53:15;10.77;;;8.00;;
15132;SDS011;7667;51.232;17.110;2023-03-13T06:55:45;11.13;;;7.40;;
15132;SDS011;7667;51.232;17.110;2023-03-13T06:58:15;11.47;;;7.50;;
15132;SDS011;7667;51.232;17.110;2023-03-13T07:00:57;10.40;;;7.07;;
15132;SDS011;7667;51.232;17.110;2023-03-13T07:03:39;12.87;;;7.70;;
15132;SDS011;7667;51.232;17.110;2023-03-13T07:06:08;10.83;;;6.60;;
15132;SDS011;7667;51.232;17.110;2023-03-13T07:08:38;11.60;;;7.50;;
15132;SDS011;7667;51.232;17.110;2023-03-13T07:11:06;9.77;;;6.37;;
15132;SDS011;7667;51.232;17.110;2023-03-13T07:13:39;10.20;;;6.20;;
15132;SDS011;7667;51.232;17.110;2023-03-13T07:16:08;8.87;;;6.10;;
15132;SDS011;7667;51.232;17.110;2023-03-13T07:18:39;11.03;;;6.63;;
15132;SDS011;7667;51.232;17.110;2023-03-13T07:21:12;9.27;;;6.10;;
15132;SDS011;7667;51.232;17.110;2023-03-13T07:23:40;11.40;;;6.33;;
15132;SDS011;7667;51.232;17.110;2023-03-13T07:26:12;8.63;;;6.00;;
15132;SDS011;7667;51.232;17.110;2023-03-13T07:28:42;10.87;;;6.40;;
15132;SDS011;7667;51.232;17.110;2023-03-13T07:31:13;10.83;;;5.90;;
15132;SDS011;7667;51.232;17.110;2023-03-13T07:33:44;11.37;;;6.30;;
15132;SDS011;7667;51.232;17.110;2023-03-13T07:36:13;10.00;;;5.57;;
15132;SDS011;7667;51.232;17.110;2023-03-13T07:38:41;12.83;;;6.07;;
15132;SDS011;7667;51.232;17.110;2023-03-13T07:41:12;9.00;;;5.30;;
15132;SDS011;7667;51.232;17.110;2023-03-13T07:43:40;8.97;;;4.90;;
15132;SDS011;7667;51.232;17.110;2023-03-13T07:46:09;11.00;;;5.37;;
15132;SDS011;7667;51.232;17.110;2023-03-13T07:48:44;7.83;;;4.83;;
15132;SDS011;7667;51.232;17.110;2023-03-13T07:51:16;9.67;;;5.00;;
15132;SDS011;7667;51.232;17.110;2023-03-13T07:54:02;10.10;;;5.20;;
